Arlington, Virginia
Current Conditions -  °F | °C
As of 3:52 PM on Friday 19 Dec 2014 (Local Time) from KDCA Reporting Station
Scattered Clouds Scattered Clouds  
Wind Chill: 36°   Ceiling: Unl
Heat Index: 42°   Visibility: 10mi
Dew Point: 22°   Wind: 12mph
Humidity: 45%   Direction: 330°NNW
Pressure: 30.16"   Gusts: NA
Location:  38.89°N, 77.09°W
Report Text: KDCA 192052Z 33010KT 10SM SCT041 06/M06 A3016 RMK AO2 SLP214 T00561056 53003
Loading
Personal Weather Stations






























Interactive Weather Map New forecast layout! Learn more

10-Day Weather Forecast

Advertisements
Track Severe Weather on mobile